createdAt,value
2022-10-07T00:00:39.836Z,1001
2022-10-07T00:01:44.184Z,1001
2022-10-07T00:02:48.884Z,1001
2022-10-07T00:03:53.472Z,1001
2022-10-07T00:04:58.016Z,1001
2022-10-07T00:06:02.492Z,1001
2022-10-07T00:07:12.318Z,1001
2022-10-07T00:08:22.364Z,1001
2022-10-07T00:09:26.895Z,1001
2022-10-07T00:10:31.396Z,1001
2022-10-07T00:11:38.864Z,1001
2022-10-07T00:14:33.260Z,1001
2022-10-07T00:15:37.803Z,1001
2022-10-07T00:16:46.141Z,1001
2022-10-07T00:17:50.644Z,1000
2022-10-07T00:18:55.625Z,1000
2022-10-07T00:20:00.245Z,1000
2022-10-07T00:21:05.083Z,1000
2022-10-07T00:22:14.288Z,1001
2022-10-07T00:23:23.696Z,1001
2022-10-07T00:24:33.097Z,1001
2022-10-07T00:25:37.939Z,1001
2022-10-07T00:26:42.532Z,1000
2022-10-07T00:27:47.262Z,1000
2022-10-07T00:28:51.511Z,1000
2022-10-07T00:29:56.100Z,1000
2022-10-07T00:31:00.599Z,1000
2022-10-07T00:32:05.088Z,1000
2022-10-07T00:33:09.582Z,1000
2022-10-07T00:34:14.000Z,1000
2022-10-07T00:35:18.739Z,1001
2022-10-07T00:36:23.323Z,1000
2022-10-07T00:37:30.057Z,1000
2022-10-07T00:38:34.414Z,1000
2022-10-07T00:42:29.290Z,1000
2022-10-07T00:43:37.854Z,1000
2022-10-07T00:44:42.542Z,1000
2022-10-07T00:45:46.835Z,1000
2022-10-07T00:46:51.255Z,1000
2022-10-07T00:47:58.953Z,1000
2022-10-07T00:49:03.461Z,1000
2022-10-07T00:50:08.261Z,1000
2022-10-07T00:51:12.515Z,1000
2022-10-07T00:52:16.798Z,1000
2022-10-07T00:53:20.961Z,1000
2022-10-07T00:54:27.236Z,1000
2022-10-07T00:55:31.625Z,1000
2022-10-07T00:56:38.442Z,1000
2022-10-07T00:57:43.242Z,1000
2022-10-07T00:58:47.222Z,1000
2022-10-07T00:59:52.861Z,1000
2022-10-07T01:00:57.517Z,1000
2022-10-07T01:02:04.556Z,1000
2022-10-07T01:03:08.696Z,1000
2022-10-07T01:04:13.176Z,1000
2022-10-07T01:05:17.635Z,1000
2022-10-07T01:06:22.211Z,1000
2022-10-07T01:09:16.528Z,1000
2022-10-07T01:13:11.277Z,1000
2022-10-07T01:14:16.592Z,1000
2022-10-07T01:15:31.235Z,1000
2022-10-07T01:16:40.552Z,1000
2022-10-07T01:17:52.404Z,1000
2022-10-07T01:19:01.715Z,1000
2022-10-07T01:20:11.108Z,1000
2022-10-07T01:21:28.300Z,1000
2022-10-07T01:22:42.814Z,1000
2022-10-07T01:23:47.131Z,1000
2022-10-07T01:25:01.832Z,1000
2022-10-07T01:26:14.908Z,1000
2022-10-07T01:27:30.128Z,1000
2022-10-07T01:28:34.540Z,1000
2022-10-07T01:29:38.772Z,1000
2022-10-07T01:30:43.218Z,1000
2022-10-07T01:31:47.560Z,1000
2022-10-07T01:32:57.177Z,1000
2022-10-07T01:34:01.504Z,1000
2022-10-07T01:35:05.688Z,1000
2022-10-07T01:36:12.704Z,1000
2022-10-07T01:37:17.000Z,1000
2022-10-07T01:38:21.440Z,1000
2022-10-07T01:39:25.808Z,1000
2022-10-07T01:40:34.857Z,1000
2022-10-07T01:41:44.212Z,1000
2022-10-07T01:42:48.800Z,1000
2022-10-07T01:43:53.236Z,1000
2022-10-07T01:44:57.454Z,1000
2022-10-07T01:46:01.774Z,1000
2022-10-07T01:47:06.372Z,1000
2022-10-07T01:48:11.100Z,1000
2022-10-07T01:49:16.336Z,1000
2022-10-07T01:50:20.613Z,1000
2022-10-07T01:51:24.789Z,1000
2022-10-07T01:52:29.120Z,1000
2022-10-07T01:53:38.438Z,1000
2022-10-07T01:54:47.812Z,1000
2022-10-07T01:55:59.829Z,1000
2022-10-07T01:57:12.161Z,1000
2022-10-07T01:58:26.612Z,1000
2022-10-07T01:59:41.050Z,1000
2022-10-07T02:00:53.240Z,1000
2022-10-07T02:01:57.633Z,1000
2022-10-07T02:03:13.935Z,1000
2022-10-07T02:04:28.412Z,1000
2022-10-07T02:05:32.876Z,1000
2022-10-07T02:08:32.621Z,1000
2022-10-07T02:09:37.210Z,1000
2022-10-07T02:10:46.970Z,1000
2022-10-07T02:12:00.941Z,1000
2022-10-07T02:13:13.329Z,1000
2022-10-07T02:14:18.009Z,1000
2022-10-07T02:15:22.257Z,1000
2022-10-07T02:16:31.701Z,1000
2022-10-07T02:17:42.106Z,1000
2022-10-07T02:18:53.589Z,1000
2022-10-07T02:19:57.857Z,1000
2022-10-07T02:21:03.284Z,1000
2022-10-07T02:22:08.217Z,1000
2022-10-07T02:23:14.929Z,1000
2022-10-07T02:24:19.210Z,1000
2022-10-07T02:25:24.037Z,1000
2022-10-07T02:26:28.362Z,1000
2022-10-07T02:27:36.714Z,1000
2022-10-07T02:28:41.094Z,1000
2022-10-07T02:29:45.369Z,1000
2022-10-07T02:30:49.716Z,1000
2022-10-07T02:31:54.090Z,1000
2022-10-07T02:32:58.285Z,1000
2022-10-07T02:34:02.608Z,1000
2022-10-07T02:35:10.765Z,1000
2022-10-07T02:36:24.489Z,1000
2022-10-07T02:37:28.846Z,1000
2022-10-07T02:38:33.134Z,1000
2022-10-07T02:39:37.377Z,1000
2022-10-07T02:40:41.705Z,1000
2022-10-07T02:41:56.801Z,1000
2022-10-07T02:43:08.769Z,1000
2022-10-07T02:44:20.790Z,1000
2022-10-07T02:45:38.385Z,1000
2022-10-07T02:46:45.920Z,1000
2022-10-07T02:47:49.989Z,1000
2022-10-07T02:48:56.881Z,1000
2022-10-07T02:51:50.997Z,1000
2022-10-07T02:52:55.209Z,1000
2022-10-07T02:54:03.363Z,1000
2022-10-07T02:55:07.725Z,1000
2022-10-07T02:56:11.878Z,1000
2022-10-07T02:57:16.109Z,1000
2022-10-07T02:58:20.365Z,1000
2022-10-07T02:59:24.893Z,1000
2022-10-07T03:00:29.181Z,1000
2022-10-07T03:01:38.392Z,1000
2022-10-07T03:02:42.667Z,1000
2022-10-07T03:03:55.357Z,1000
2022-10-07T03:04:59.681Z,1000
2022-10-07T03:06:04.207Z,1000
2022-10-07T03:07:08.561Z,999
2022-10-07T03:09:16.421Z,999
2022-10-07T03:10:20.917Z,999
2022-10-07T03:11:25.401Z,999
2022-10-07T03:12:29.833Z,999
2022-10-07T03:13:37.081Z,999
2022-10-07T03:14:41.383Z,999
2022-10-07T03:15:45.635Z,999
2022-10-07T03:16:49.973Z,999
2022-10-07T03:17:54.321Z,999
2022-10-07T03:19:03.142Z,999
2022-10-07T03:20:07.775Z,999
2022-10-07T03:21:12.215Z,999
2022-10-07T03:22:16.896Z,999
2022-10-07T03:23:21.088Z,999
2022-10-07T03:24:26.268Z,999
2022-10-07T03:25:30.500Z,999
2022-10-07T03:26:34.752Z,999
2022-10-07T03:27:39.056Z,999
2022-10-07T03:28:43.514Z,999
2022-10-07T03:29:47.608Z,999
2022-10-07T03:30:52.011Z,999
2022-10-07T03:31:56.363Z,999
2022-10-07T03:33:01.325Z,999
2022-10-07T03:34:05.595Z,999
2022-10-07T03:35:13.395Z,999
2022-10-07T03:36:17.915Z,999
2022-10-07T03:37:22.125Z,999
2022-10-07T03:38:26.389Z,999
2022-10-07T03:39:33.717Z,999
2022-10-07T03:40:38.201Z,999
2022-10-07T03:41:42.539Z,999
2022-10-07T03:42:48.608Z,999
2022-10-07T03:43:54.209Z,999
2022-10-07T03:44:58.476Z,999
2022-10-07T03:46:02.951Z,999
2022-10-07T03:47:10.474Z,999
2022-10-07T03:48:11.778Z,999
2022-10-07T03:49:16.405Z,999
2022-10-07T03:50:24.936Z,999
2022-10-07T03:51:29.127Z,999
2022-10-07T03:56:12.411Z,999
2022-10-07T04:00:55.300Z,999
2022-10-07T04:05:43.689Z,999
2022-10-07T04:06:58.059Z,999
2022-10-07T04:09:59.467Z,999
2022-10-07T04:11:03.455Z,999
2022-10-07T04:14:37.129Z,999
2022-10-07T04:19:25.199Z,999
2022-10-07T04:20:29.455Z,999
2022-10-07T04:23:54.648Z,999
2022-10-07T04:26:50.671Z,999
2022-10-07T04:29:44.292Z,999
2022-10-07T04:34:17.171Z,999
2022-10-07T04:35:29.701Z,999
2022-10-07T04:36:34.816Z,999
2022-10-07T04:37:39.067Z,999
2022-10-07T04:40:35.859Z,999
2022-10-07T04:43:34.488Z,999
2022-10-07T04:44:48.663Z,999
2022-10-07T04:45:53.059Z,999
2022-10-07T04:47:10.496Z,999
2022-10-07T04:52:13.763Z,999
2022-10-07T04:55:52.611Z,999
2022-10-07T05:00:35.741Z,999
2022-10-07T05:01:45.992Z,999
2022-10-07T05:09:53.294Z,999
2022-10-07T05:15:06.432Z,999
2022-10-07T05:16:10.827Z,999
2022-10-07T05:17:25.569Z,999
2022-10-07T05:20:23.973Z,999
2022-10-07T05:21:28.055Z,999
2022-10-07T05:24:36.482Z,999
2022-10-07T05:25:41.723Z,999
2022-10-07T05:26:45.748Z,999
2022-10-07T05:28:00.617Z,999
2022-10-07T05:29:05.223Z,999
2022-10-07T05:32:04.632Z,999
2022-10-07T05:33:04.539Z,999
2022-10-07T05:34:38.715Z,999
2022-10-07T05:37:32.839Z,999
2022-10-07T05:42:30.595Z,999
2022-10-07T05:43:35.096Z,998
2022-10-07T05:52:02.355Z,999
2022-10-07T05:53:06.543Z,999
2022-10-07T05:56:30.260Z,999
2022-10-07T05:59:24.280Z,999
2022-10-07T06:08:02.150Z,999
2022-10-07T06:09:06.163Z,999
2022-10-07T06:14:41.743Z,999
2022-10-07T06:25:30.491Z,999
2022-10-07T06:26:34.883Z,999
2022-10-07T06:31:18.531Z,999
2022-10-07T06:32:25.674Z,999
2022-10-07T06:35:53.243Z,999
2022-10-07T06:36:57.292Z,999
2022-10-07T06:39:57.454Z,999
2022-10-07T06:42:53.506Z,999
2022-10-07T06:49:36.654Z,998
2022-10-07T06:51:26.710Z,998
2022-10-07T06:52:32.688Z,998
2022-10-07T06:55:08.897Z,998
2022-10-07T06:56:13.560Z,998
2022-10-07T06:57:44.105Z,998
2022-10-07T07:00:12.786Z,998
2022-10-07T07:01:17.246Z,998
2022-10-07T07:02:26.234Z,998
2022-10-07T07:03:32.749Z,998
2022-10-07T07:04:46.862Z,998
2022-10-07T07:05:54.402Z,998
2022-10-07T07:07:00.825Z,998
2022-10-07T07:08:05.429Z,998
2022-10-07T07:09:09.540Z,998
2022-10-07T07:10:13.661Z,998
2022-10-07T07:11:17.713Z,998
2022-10-07T07:12:27.033Z,998
2022-10-07T07:13:31.037Z,998
2022-10-07T07:14:51.380Z,998
2022-10-07T07:20:05.825Z,998
2022-10-07T07:21:10.853Z,998
2022-10-07T07:23:55.025Z,998
2022-10-07T07:24:59.076Z,998
2022-10-07T07:26:03.210Z,998
2022-10-07T07:27:07.387Z,998
2022-10-07T07:28:31.692Z,998
2022-10-07T07:29:46.678Z,998
2022-10-07T07:30:50.849Z,998
2022-10-07T07:34:16.582Z,998
2022-10-07T07:39:00.118Z,998
2022-10-07T07:40:10.122Z,998
2022-10-07T07:41:29.256Z,998
2022-10-07T07:42:38.265Z,998
2022-10-07T07:43:45.780Z,998
2022-10-07T07:44:49.947Z,998
2022-10-07T07:46:14.188Z,998
2022-10-07T07:47:18.288Z,998
2022-10-07T07:48:22.300Z,998
2022-10-07T07:51:00.897Z,998
2022-10-07T07:54:19.492Z,998
2022-10-07T07:59:17.641Z,998
2022-10-07T08:02:51.116Z,998
2022-10-07T08:08:49.390Z,998
2022-10-07T08:09:58.988Z,998
2022-10-07T08:13:24.892Z,998
2022-10-07T08:14:42.792Z,998
2022-10-07T08:18:36.392Z,998
2022-10-07T08:23:49.292Z,998
2022-10-07T08:25:06.647Z,998
2022-10-07T08:29:49.628Z,998
2022-10-07T08:31:29.450Z,998
2022-10-07T08:36:12.076Z,998
2022-10-07T08:37:39.183Z,998
2022-10-07T08:38:49.132Z,998
2022-10-07T08:39:53.256Z,998
2022-10-07T08:41:02.622Z,998
2022-10-07T08:49:02.316Z,998
2022-10-07T08:50:06.569Z,998
2022-10-07T08:51:17.362Z,998
2022-10-07T08:52:43.518Z,998
2022-10-07T08:55:22.157Z,998
2022-10-07T08:56:35.352Z,998
2022-10-07T08:57:39.444Z,998
2022-10-07T09:00:23.520Z,998
2022-10-07T09:01:30.437Z,998
2022-10-07T09:02:42.425Z,998
2022-10-07T09:03:56.628Z,998
2022-10-07T09:05:08.733Z,998
2022-10-07T09:06:18.004Z,998
2022-10-07T09:07:32.233Z,998
2022-10-07T09:10:58.343Z,998
2022-10-07T09:12:15.445Z,998
2022-10-07T09:13:39.241Z,998
2022-10-07T09:15:04.815Z,998
2022-10-07T09:16:09.204Z,998
2022-10-07T09:19:32.136Z,997
2022-10-07T09:22:25.608Z,997
2022-10-07T09:23:32.760Z,997
2022-10-07T09:24:36.891Z,997
2022-10-07T09:25:40.877Z,997
2022-10-07T09:29:05.664Z,997
2022-10-07T09:34:18.496Z,997
2022-10-07T09:35:25.080Z,997
2022-10-07T09:38:52.268Z,997
2022-10-07T09:44:25.315Z,997
2022-10-07T09:45:44.356Z,997
2022-10-07T09:48:42.503Z,997
2022-10-07T09:51:36.317Z,997
2022-10-07T09:52:41.044Z,997
2022-10-07T09:53:45.312Z,997
2022-10-07T09:54:59.128Z,997
2022-10-07T09:56:13.941Z,997
2022-10-07T09:57:19.119Z,997
2022-10-07T09:58:29.342Z,997
2022-10-07T09:59:33.798Z,997
2022-10-07T10:00:38.189Z,997
2022-10-07T10:01:42.538Z,997
2022-10-07T10:02:52.353Z,997
2022-10-07T10:03:59.288Z,997
2022-10-07T10:05:07.884Z,997
2022-10-07T10:06:20.248Z,997
2022-10-07T10:07:24.384Z,997
2022-10-07T10:08:31.944Z,997
2022-10-07T10:09:40.769Z,997
2022-10-07T10:10:54.824Z,997
2022-10-07T10:13:08.468Z,997
2022-10-07T10:14:12.680Z,997
2022-10-07T10:15:26.956Z,997
2022-10-07T10:16:37.073Z,997
2022-10-07T10:17:43.481Z,997
2022-10-07T10:18:47.812Z,997
2022-10-07T10:19:59.091Z,997
2022-10-07T10:21:13.366Z,997
2022-10-07T10:22:25.496Z,997
2022-10-07T10:23:33.144Z,997
2022-10-07T10:24:37.604Z,997
2022-10-07T10:25:47.249Z,997
2022-10-07T10:27:04.368Z,997
2022-10-07T10:28:13.948Z,997
2022-10-07T10:29:23.772Z,997
2022-10-07T10:30:35.477Z,997
2022-10-07T10:31:39.800Z,997
2022-10-07T10:32:52.744Z,997
2022-10-07T10:34:07.869Z,997
2022-10-07T10:35:17.772Z,997
2022-10-07T10:36:33.956Z,997
2022-10-07T10:37:38.160Z,996
2022-10-07T10:38:42.649Z,996
2022-10-07T10:39:52.051Z,996
2022-10-07T10:41:06.911Z,996
2022-10-07T10:42:16.868Z,996
2022-10-07T10:43:20.992Z,996
2022-10-07T10:44:25.337Z,996
2022-10-07T10:45:39.660Z,996
2022-10-07T10:46:53.940Z,996
2022-10-07T10:48:06.584Z,996
2022-10-07T10:49:20.988Z,996
2022-10-07T10:50:31.641Z,996
2022-10-07T10:51:44.463Z,996
2022-10-07T10:52:56.576Z,996
2022-10-07T10:54:05.734Z,996
2022-10-07T10:55:21.853Z,996
2022-10-07T10:56:34.905Z,996
2022-10-07T10:57:39.749Z,996
2022-10-07T10:58:51.644Z,996
2022-10-07T11:00:06.086Z,996
2022-10-07T11:01:20.691Z,996
2022-10-07T11:02:29.915Z,996
2022-10-07T11:03:39.052Z,996
2022-10-07T11:04:44.784Z,996
2022-10-07T11:05:53.108Z,996
2022-10-07T11:06:57.445Z,996
2022-10-07T11:08:10.013Z,996
2022-10-07T11:09:25.431Z,996
2022-10-07T11:10:35.578Z,996
2022-10-07T11:11:42.577Z,996
2022-10-07T11:12:47.906Z,996
2022-10-07T11:13:52.466Z,996
2022-10-07T11:15:02.078Z,996
2022-10-07T11:16:16.789Z,996
2022-10-07T11:17:27.227Z,996
2022-10-07T11:18:33.278Z,996
2022-10-07T11:19:45.709Z,996
2022-10-07T11:20:53.772Z,996
2022-10-07T11:21:58.233Z,996
2022-10-07T11:23:07.120Z,996
2022-10-07T11:24:21.876Z,996
2022-10-07T11:25:35.094Z,996
2022-10-07T11:26:39.496Z,996
2022-10-07T11:27:52.576Z,996
2022-10-07T11:28:56.693Z,996
2022-10-07T11:30:01.693Z,996
2022-10-07T11:31:13.919Z,996
2022-10-07T11:32:26.384Z,996
2022-10-07T11:35:33.783Z,996
2022-10-07T11:36:43.291Z,995
2022-10-07T11:37:57.948Z,995
2022-10-07T11:39:13.953Z,995
2022-10-07T11:40:18.160Z,995
2022-10-07T11:41:22.729Z,995
2022-10-07T11:42:32.926Z,995
2022-10-07T11:43:40.214Z,995
2022-10-07T11:44:44.612Z,995
2022-10-07T11:45:55.488Z,995
2022-10-07T11:48:54.876Z,995
2022-10-07T11:50:06.833Z,995
2022-10-07T11:51:14.941Z,995
2022-10-07T11:52:24.417Z,995
2022-10-07T11:53:28.821Z,995
2022-10-07T11:56:25.448Z,995
2022-10-07T11:57:29.848Z,995
2022-10-07T11:58:34.140Z,995
2022-10-07T11:59:38.844Z,995
2022-10-07T12:00:46.768Z,995
2022-10-07T12:01:51.720Z,995
2022-10-07T12:02:56.278Z,995
2022-10-07T12:04:05.728Z,995
2022-10-07T12:05:20.324Z,995
2022-10-07T12:06:34.867Z,995
2022-10-07T12:07:39.718Z,995
2022-10-07T12:10:36.504Z,995
2022-10-07T12:11:41.808Z,995
2022-10-07T12:12:46.351Z,995
2022-10-07T12:13:53.632Z,995
2022-10-07T12:15:00.225Z,995
2022-10-07T12:16:07.258Z,995
2022-10-07T12:17:22.135Z,995
2022-10-07T12:21:52.463Z,995
2022-10-07T12:24:54.852Z,995
2022-10-07T12:26:09.585Z,995
2022-10-07T12:27:24.036Z,995
2022-10-07T12:28:28.307Z,995
2022-10-07T12:29:32.439Z,995
2022-10-07T12:30:41.975Z,995
2022-10-07T12:31:51.342Z,995
2022-10-07T12:32:55.719Z,995
2022-10-07T12:34:00.379Z,995
2022-10-07T12:36:57.355Z,995
2022-10-07T12:38:11.663Z,995
2022-10-07T12:39:20.992Z,995
2022-10-07T12:40:28.569Z,995
2022-10-07T12:41:35.402Z,995
2022-10-07T12:42:37.079Z,994
2022-10-07T12:43:43.572Z,995
2022-10-07T12:44:52.898Z,995
2022-10-07T12:45:58.797Z,994
2022-10-07T12:50:27.467Z,994
2022-10-07T12:53:21.587Z,994
2022-10-07T12:54:26.299Z,994
2022-10-07T12:55:38.587Z,994
2022-10-07T12:56:42.964Z,994
2022-10-07T12:57:47.301Z,994
2022-10-07T12:58:51.439Z,994
2022-10-07T13:01:55.513Z,994
2022-10-07T13:03:02.531Z,994
2022-10-07T13:04:17.047Z,994
2022-10-07T13:05:24.975Z,994
2022-10-07T13:06:37.091Z,994
2022-10-07T13:07:51.740Z,994
2022-10-07T13:09:06.457Z,994
2022-10-07T13:10:17.664Z,994
2022-10-07T13:11:32.143Z,994
2022-10-07T13:12:44.799Z,994
2022-10-07T13:13:55.003Z,994
2022-10-07T13:15:07.313Z,994
2022-10-07T13:16:17.155Z,994
2022-10-07T13:17:26.596Z,994
2022-10-07T13:18:36.652Z,994
2022-10-07T13:19:41.108Z,994
2022-10-07T13:20:52.968Z,994
2022-10-07T13:22:01.556Z,994
2022-10-07T13:23:13.727Z,994
2022-10-07T13:24:22.531Z,994
2022-10-07T13:25:29.444Z,994
2022-10-07T13:26:33.983Z,994
2022-10-07T13:29:32.861Z,994
2022-10-07T13:30:37.225Z,994
2022-10-07T13:35:20.837Z,994
2022-10-07T13:36:30.765Z,994
2022-10-07T13:40:59.134Z,994
2022-10-07T13:42:16.954Z,994
2022-10-07T13:45:38.207Z,994
2022-10-07T13:46:42.721Z,994
2022-10-07T13:55:42.544Z,993
2022-10-07T13:59:45.339Z,993
2022-10-07T14:00:49.699Z,993
2022-10-07T14:05:22.867Z,993
2022-10-07T14:08:31.579Z,993
2022-10-07T14:09:35.751Z,993
2022-10-07T14:10:49.995Z,993
2022-10-07T14:14:21.595Z,993
2022-10-07T14:21:18.508Z,993
2022-10-07T14:22:22.749Z,993
2022-10-07T14:23:36.180Z,993
2022-10-07T14:24:40.562Z,993
2022-10-07T14:27:35.042Z,993
2022-10-07T14:28:39.472Z,993
2022-10-07T14:31:33.603Z,993
2022-10-07T14:32:43.307Z,993
2022-10-07T14:33:57.560Z,993
2022-10-07T14:35:17.244Z,993
2022-10-07T14:36:21.829Z,993
2022-10-07T14:37:29.664Z,993
2022-10-07T14:38:30.438Z,993
2022-10-07T14:39:34.784Z,993
2022-10-07T14:40:41.864Z,993
2022-10-07T14:41:46.181Z,993
2022-10-07T14:42:50.593Z,993
2022-10-07T14:43:54.973Z,993
2022-10-07T14:44:59.264Z,993
2022-10-07T14:46:03.781Z,993
2022-10-07T14:47:13.927Z,993
2022-10-07T14:48:18.238Z,993
2022-10-07T14:49:23.188Z,993
2022-10-07T14:50:28.980Z,993
2022-10-07T14:51:34.686Z,993
2022-10-07T14:52:43.698Z,993
2022-10-07T14:53:46.381Z,993
2022-10-07T14:54:53.064Z,993
2022-10-07T14:56:00.473Z,993
2022-10-07T14:57:07.321Z,993
2022-10-07T14:58:24.209Z,993
2022-10-07T14:59:28.564Z,993
2022-10-07T15:00:39.574Z,992
2022-10-07T15:01:41.488Z,992
2022-10-07T15:02:46.152Z,992
2022-10-07T15:03:50.223Z,992
2022-10-07T15:04:54.793Z,992
2022-10-07T15:05:59.157Z,992
2022-10-07T15:07:03.455Z,992
2022-10-07T15:08:07.672Z,992
2022-10-07T15:09:11.972Z,992
2022-10-07T15:10:16.920Z,992
2022-10-07T15:11:21.780Z,992
2022-10-07T15:12:26.081Z,992
2022-10-07T15:13:30.429Z,992
2022-10-07T15:14:34.892Z,992
2022-10-07T15:15:39.241Z,992
2022-10-07T15:16:43.842Z,992
2022-10-07T15:17:48.368Z,992
2022-10-07T15:18:53.227Z,992
2022-10-07T15:20:02.260Z,992
2022-10-07T15:21:09.828Z,992
2022-10-07T15:22:14.257Z,992
2022-10-07T15:23:19.930Z,992
2022-10-07T15:24:25.405Z,992
2022-10-07T15:25:29.928Z,992
2022-10-07T15:26:34.333Z,992
2022-10-07T15:27:38.972Z,992
2022-10-07T15:28:43.359Z,992
2022-10-07T15:29:48.069Z,992
2022-10-07T15:30:52.305Z,992
2022-10-07T15:32:05.787Z,992
2022-10-07T15:33:14.318Z,992
2022-10-07T15:34:19.008Z,992
2022-10-07T15:35:23.741Z,992
2022-10-07T15:36:30.150Z,992
2022-10-07T15:37:35.948Z,992
2022-10-07T15:38:40.456Z,992
2022-10-07T15:39:44.940Z,992
2022-10-07T15:40:49.396Z,992
2022-10-07T15:41:56.553Z,992
2022-10-07T15:43:01.856Z,992
2022-10-07T15:44:06.470Z,992
2022-10-07T15:45:13.436Z,992
2022-10-07T15:46:18.392Z,992
2022-10-07T15:47:22.981Z,992
2022-10-07T15:48:27.280Z,992
2022-10-07T15:49:31.432Z,992
2022-10-07T15:50:35.899Z,992
2022-10-07T15:51:40.424Z,992
2022-10-07T15:52:44.954Z,992
2022-10-07T15:53:48.992Z,992
2022-10-07T15:54:56.936Z,992
2022-10-07T15:56:02.156Z,992
2022-10-07T15:57:07.708Z,992
2022-10-07T15:58:12.101Z,992
2022-10-07T15:59:17.125Z,992
2022-10-07T16:00:22.025Z,992
2022-10-07T16:01:26.883Z,992
2022-10-07T16:02:33.981Z,992
2022-10-07T16:03:38.269Z,992
2022-10-07T16:04:45.884Z,992
2022-10-07T16:05:51.655Z,992
2022-10-07T16:06:58.664Z,992
2022-10-07T16:08:03.157Z,992
2022-10-07T16:09:07.723Z,992
2022-10-07T16:10:13.244Z,992
2022-10-07T16:11:16.560Z,992
2022-10-07T16:12:21.069Z,992
2022-10-07T16:13:25.576Z,992
2022-10-07T16:14:30.252Z,992
2022-10-07T16:15:35.211Z,992
2022-10-07T16:16:39.659Z,992
2022-10-07T16:17:44.608Z,992
2022-10-07T16:18:49.321Z,992
2022-10-07T16:19:53.555Z,992
2022-10-07T16:20:58.104Z,992
2022-10-07T16:22:05.656Z,992
2022-10-07T16:23:10.376Z,992
2022-10-07T16:24:14.558Z,992
2022-10-07T16:25:19.224Z,992
2022-10-07T16:26:23.597Z,992
2022-10-07T16:27:27.968Z,992
2022-10-07T16:28:32.861Z,992
2022-10-07T16:29:42.501Z,992
2022-10-07T16:30:52.700Z,992
2022-10-07T16:31:58.747Z,992
2022-10-07T16:33:04.776Z,992
2022-10-07T16:34:11.241Z,992
2022-10-07T16:35:20.133Z,992
2022-10-07T16:36:24.980Z,992
2022-10-07T16:37:29.748Z,992
2022-10-07T16:38:35.468Z,992
2022-10-07T16:43:38.445Z,992
2022-10-07T16:48:37.456Z,992
2022-10-07T16:53:30.374Z,992
2022-10-07T16:58:00.476Z,992
2022-10-07T17:02:43.345Z,992
2022-10-07T17:07:26.148Z,992
2022-10-07T17:12:58.868Z,992
2022-10-07T17:16:32.746Z,992
2022-10-07T17:21:15.478Z,992
2022-10-07T17:26:29.407Z,992
2022-10-07T17:27:33.582Z,992
2022-10-07T17:30:58.586Z,992
2022-10-07T17:36:16.998Z,992
2022-10-07T17:37:21.227Z,992
2022-10-07T17:40:46.731Z,992
2022-10-07T17:45:29.746Z,992
2022-10-07T17:46:36.852Z,992
2022-10-07T17:50:03.582Z,992
2022-10-07T17:54:47.353Z,992
2022-10-07T17:59:31.196Z,992
2022-10-07T18:16:25.974Z,992
2022-10-07T18:21:12.174Z,992
2022-10-07T18:26:45.078Z,992
2022-10-07T18:28:09.738Z,992
2022-10-07T18:32:53.363Z,992
2022-10-07T18:37:36.686Z,991
2022-10-07T18:42:59.415Z,991
2022-10-07T18:47:57.648Z,991
2022-10-07T18:52:27.998Z,991
2022-10-07T18:57:21.902Z,991
2022-10-07T19:02:05.239Z,991
2022-10-07T19:06:48.277Z,991
2022-10-07T19:11:31.059Z,991
2022-10-07T19:17:03.854Z,991
2022-10-07T19:25:21.011Z,991
2022-10-07T19:26:30.018Z,991
2022-10-07T19:37:48.725Z,991
2022-10-07T19:38:57.549Z,991
2022-10-07T19:44:10.084Z,991
2022-10-07T19:49:23.734Z,991
2022-10-07T19:54:06.634Z,991
2022-10-07T19:59:19.726Z,991
2022-10-07T20:03:50.130Z,991
2022-10-07T20:04:56.794Z,991
2022-10-07T20:08:26.165Z,991
2022-10-07T20:09:30.254Z,991
2022-10-07T20:12:55.522Z,991
2022-10-07T20:17:38.725Z,991
2022-10-07T20:22:21.490Z,991
2022-10-07T20:27:05.017Z,991
2022-10-07T20:44:00.698Z,991
2022-10-07T20:45:10.045Z,991
2022-10-07T20:49:53.033Z,991
2022-10-07T20:54:35.825Z,991
2022-10-07T20:59:18.783Z,991
2022-10-07T21:04:51.601Z,991
2022-10-07T21:13:30.973Z,991
2022-10-07T21:14:35.205Z,991
2022-10-07T21:18:01.965Z,991
2022-10-07T21:23:14.737Z,991
2022-10-07T21:24:18.853Z,991
2022-10-07T21:32:55.415Z,991
2022-10-07T21:33:59.637Z,991
2022-10-07T21:37:28.110Z,991
2022-10-07T21:42:36.017Z,991
2022-10-07T21:43:40.121Z,991
2022-10-07T21:47:05.530Z,991
2022-10-07T21:59:01.630Z,991
2022-10-07T22:05:21.412Z,991
2022-10-07T22:10:04.722Z,991
2022-10-07T22:15:17.920Z,991
2022-10-07T22:19:12.396Z,991
2022-10-07T22:20:16.448Z,991
2022-10-07T22:24:41.181Z,991
2022-10-07T22:25:45.337Z,991
2022-10-07T22:31:18.136Z,991
2022-10-07T22:40:14.701Z,991
2022-10-07T22:41:18.821Z,991
2022-10-07T22:44:43.936Z,991
2022-10-07T22:49:29.704Z,991
2022-10-07T22:54:39.842Z,990
2022-10-07T22:55:43.917Z,990
2022-10-07T22:59:12.453Z,990
2022-10-07T23:00:16.681Z,990
2022-10-07T23:03:43.756Z,990
2022-10-07T23:08:26.655Z,990
2022-10-07T23:13:09.437Z,990
2022-10-07T23:25:32.885Z,990
2022-10-07T23:26:42.069Z,990
2022-10-07T23:31:54.769Z,990
2022-10-07T23:37:07.635Z,990
2022-10-07T23:42:20.383Z,990
2022-10-07T23:47:03.069Z,990
2022-10-07T23:52:15.861Z,990
2022-10-07T23:56:45.415Z,990
